createdAt,value
2023-05-13T00:02:26.466Z,16.00
2023-05-13T00:04:58.192Z,13.00
2023-05-13T00:07:30.359Z,12.60
2023-05-13T00:10:10.910Z,12.60
2023-05-13T00:12:43.070Z,12.40
2023-05-13T00:15:15.397Z,12.60
2023-05-13T00:17:54.971Z,13.00
2023-05-13T00:20:25.791Z,13.00
2023-05-13T00:23:03.834Z,12.40
2023-05-13T00:25:39.768Z,15.00
2023-05-13T00:28:12.718Z,14.20
2023-05-13T00:30:51.227Z,12.00
2023-05-13T00:33:25.081Z,12.80
2023-05-13T00:35:55.672Z,13.20
2023-05-13T00:38:31.804Z,16.00
2023-05-13T00:41:03.428Z,15.20
2023-05-13T00:43:40.149Z,16.00
2023-05-13T00:46:19.393Z,15.20
2023-05-13T00:48:48.567Z,12.00
2023-05-13T00:51:23.619Z,15.40
2023-05-13T00:53:58.048Z,10.00
2023-05-13T00:56:33.153Z,14.60
2023-05-13T00:59:04.778Z,9.80
2023-05-13T01:01:42.416Z,17.20
2023-05-13T01:04:19.696Z,13.80
2023-05-13T01:06:59.745Z,16.00
2023-05-13T01:09:50.513Z,13.80
2023-05-13T01:12:29.272Z,15.20
2023-05-13T01:15:16.473Z,13.00
2023-05-13T01:17:51.355Z,10.00
2023-05-13T01:20:26.648Z,15.00
2023-05-13T01:23:00.452Z,13.40
2023-05-13T01:25:29.816Z,12.20
2023-05-13T01:28:03.320Z,15.00
2023-05-13T01:30:32.538Z,13.00
2023-05-13T01:33:04.315Z,12.00
2023-05-13T01:35:33.725Z,15.40
2023-05-13T01:38:05.966Z,12.20
2023-05-13T01:40:37.580Z,13.00
2023-05-13T01:43:10.245Z,9.60
2023-05-13T01:45:39.529Z,13.00
2023-05-13T01:48:16.088Z,15.00
2023-05-13T01:50:51.100Z,15.40
2023-05-13T01:53:23.759Z,13.00
2023-05-13T01:55:58.578Z,15.00
2023-05-13T01:58:31.385Z,13.80
2023-05-13T02:01:06.787Z,14.20
2023-05-13T02:03:42.286Z,12.40
2023-05-13T02:06:15.751Z,14.20
2023-05-13T02:08:52.432Z,15.80
2023-05-13T02:11:23.577Z,15.40
2023-05-13T02:13:58.774Z,15.80
2023-05-13T02:16:34.895Z,13.80
2023-05-13T02:19:07.095Z,15.00
2023-05-13T02:21:41.056Z,13.00
2023-05-13T02:24:12.655Z,11.20
2023-05-13T02:29:34.778Z,15.00
2023-05-13T02:32:05.381Z,14.60
2023-05-13T02:34:42.005Z,13.00
2023-05-13T02:37:11.181Z,11.20
2023-05-13T02:39:47.281Z,15.00
2023-05-13T02:42:18.483Z,15.00
2023-05-13T02:44:53.559Z,15.80
2023-05-13T02:47:31.940Z,12.40
2023-05-13T02:50:00.966Z,15.20
2023-05-13T02:52:41.671Z,13.00
2023-05-13T02:55:16.377Z,12.80
2023-05-13T02:57:45.866Z,15.40
2023-05-13T03:00:21.332Z,15.00
2023-05-13T03:02:54.298Z,16.00
2023-05-13T03:05:39.330Z,16.00
2023-05-13T03:08:14.265Z,14.20
2023-05-13T03:10:46.934Z,15.80
2023-05-13T03:13:18.406Z,15.00
2023-05-13T03:15:50.348Z,15.80
2023-05-13T03:18:24.402Z,14.60
2023-05-13T03:20:53.668Z,15.60
2023-05-13T03:23:30.418Z,16.00
2023-05-13T03:26:05.957Z,16.00
2023-05-13T03:28:37.555Z,13.00
2023-05-13T03:31:09.174Z,16.00
2023-05-13T03:33:38.714Z,12.00
2023-05-13T03:36:12.837Z,15.80
2023-05-13T03:38:43.508Z,13.80
2023-05-13T03:41:21.901Z,8.60
2023-05-13T03:43:54.623Z,15.40
2023-05-13T03:46:29.742Z,17.20
2023-05-13T03:48:59.287Z,16.40
2023-05-13T03:51:31.566Z,12.20
2023-05-13T03:54:03.770Z,15.20
2023-05-13T03:56:38.716Z,14.60
2023-05-13T03:59:09.490Z,13.00
2023-05-13T04:01:44.438Z,15.60
2023-05-13T04:04:17.717Z,14.20
2023-05-13T04:06:54.312Z,15.00
2023-05-13T04:09:23.756Z,13.80
2023-05-13T04:11:54.590Z,12.40
2023-05-13T04:14:23.726Z,16.00
2023-05-13T04:16:57.398Z,13.00
2023-05-13T04:19:46.706Z,12.00
2023-05-13T04:22:23.484Z,15.00
2023-05-13T04:24:57.639Z,15.60
2023-05-13T04:27:29.494Z,15.00
2023-05-13T04:30:05.430Z,15.80
2023-05-13T04:32:40.655Z,14.20
2023-05-13T04:35:14.252Z,14.20
2023-05-13T04:37:43.674Z,12.00
2023-05-13T04:40:15.648Z,12.60
2023-05-13T04:42:55.259Z,14.20
2023-05-13T04:45:25.429Z,15.00
2023-05-13T04:48:04.626Z,15.00
2023-05-13T04:50:33.824Z,14.20
2023-05-13T04:53:05.413Z,13.80
2023-05-13T04:55:43.005Z,15.60
2023-05-13T04:58:13.609Z,15.20
2023-05-13T05:00:47.475Z,14.20
2023-05-13T05:03:23.031Z,12.80
2023-05-13T05:05:52.154Z,14.20
2023-05-13T05:08:21.265Z,16.00
2023-05-13T05:10:57.076Z,15.60
2023-05-13T05:13:27.620Z,10.80
2023-05-13T05:15:59.082Z,15.80
2023-05-13T05:18:28.074Z,13.80
2023-05-13T05:21:03.455Z,13.00
2023-05-13T05:23:40.559Z,14.60
2023-05-13T05:26:12.207Z,13.20
2023-05-13T05:28:49.246Z,13.00
2023-05-13T05:31:19.016Z,16.00
2023-05-13T05:33:50.424Z,13.40
2023-05-13T05:36:21.807Z,12.60
2023-05-13T05:38:50.941Z,12.60
2023-05-13T05:41:25.060Z,14.60
2023-05-13T05:43:56.636Z,7.00
2023-05-13T05:46:27.300Z,13.00
2023-05-13T05:49:05.450Z,13.40
2023-05-13T05:51:39.574Z,12.80
2023-05-13T05:54:12.822Z,12.00
2023-05-13T05:56:44.940Z,10.20
2023-05-13T05:59:17.800Z,11.60
2023-05-13T06:01:50.917Z,12.00
2023-05-13T06:04:25.227Z,15.00
2023-05-13T06:06:54.463Z,15.40
2023-05-13T06:09:25.447Z,14.60
2023-05-13T06:11:59.278Z,13.00
2023-05-13T06:14:32.593Z,13.00
2023-05-13T06:17:02.744Z,13.00
2023-05-13T06:19:50.134Z,15.20
2023-05-13T06:22:19.584Z,15.00
2023-05-13T06:24:55.246Z,15.60
2023-05-13T06:27:24.335Z,15.60
2023-05-13T06:29:57.648Z,15.40
2023-05-13T06:32:28.943Z,13.40
2023-05-13T06:35:00.426Z,10.40
2023-05-13T06:37:31.502Z,14.20
2023-05-13T06:40:04.085Z,14.20
2023-05-13T06:42:36.786Z,12.60
2023-05-13T06:45:09.661Z,14.00
2023-05-13T06:47:44.348Z,12.00
2023-05-13T06:50:18.696Z,13.00
2023-05-13T06:52:47.997Z,12.50
2023-05-13T06:55:20.304Z,13.00
2023-05-13T06:57:51.883Z,13.00
2023-05-13T07:00:26.286Z,12.00
2023-05-13T07:02:55.548Z,12.75
2023-05-13T07:05:28.612Z,11.75
2023-05-13T07:07:57.958Z,13.50
2023-05-13T07:10:27.087Z,13.50
2023-05-13T07:12:56.178Z,10.50
2023-05-13T07:15:32.749Z,12.00
2023-05-13T07:18:09.722Z,12.00
2023-05-13T07:20:39.042Z,10.00
2023-05-13T07:23:08.317Z,13.00
2023-05-13T07:25:37.245Z,11.75
2023-05-13T07:28:06.605Z,12.00
2023-05-13T07:30:43.440Z,9.75
2023-05-13T07:33:14.235Z,9.75
2023-05-13T07:35:47.508Z,9.00
2023-05-13T07:38:20.474Z,10.25
2023-05-13T07:40:58.467Z,12.25
2023-05-13T07:43:28.289Z,12.75
2023-05-13T07:45:58.875Z,13.50
2023-05-13T07:48:28.984Z,12.00
2023-05-13T07:50:59.929Z,13.00
2023-05-13T07:53:34.298Z,12.25
2023-05-13T07:56:03.481Z,10.75
2023-05-13T07:58:34.269Z,12.75
2023-05-13T08:01:11.040Z,11.00
2023-05-13T08:03:44.865Z,12.50
2023-05-13T08:06:16.011Z,9.75
2023-05-13T08:08:47.675Z,11.25
2023-05-13T08:11:19.627Z,10.00
2023-05-13T08:13:50.696Z,10.75
2023-05-13T08:16:24.817Z,10.75
2023-05-13T08:19:01.762Z,8.00
2023-05-13T08:21:35.333Z,10.00
2023-05-13T08:24:05.682Z,10.25
2023-05-13T08:26:35.433Z,10.75
2023-05-13T08:29:06.286Z,12.00
2023-05-13T08:31:41.494Z,12.50
2023-05-13T08:34:12.050Z,8.00
2023-05-13T08:36:41.270Z,11.75
2023-05-13T08:39:17.249Z,9.75
2023-05-13T08:41:52.470Z,11.00
2023-05-13T08:44:33.463Z,10.00
2023-05-13T08:47:09.988Z,8.50
2023-05-13T08:49:40.041Z,10.00
2023-05-13T08:52:13.304Z,10.00
2023-05-13T08:54:44.706Z,11.00
2023-05-13T08:57:14.026Z,11.50
2023-05-13T08:59:52.514Z,5.00
2023-05-13T09:02:24.937Z,11.50
2023-05-13T09:04:58.856Z,7.50
2023-05-13T09:07:28.327Z,8.50
2023-05-13T09:09:59.595Z,10.00
2023-05-13T09:12:45.059Z,11.50
2023-05-13T09:15:16.839Z,8.00
2023-05-13T09:17:53.668Z,11.50
2023-05-13T09:20:23.368Z,10.00
2023-05-13T09:22:55.934Z,7.00
2023-05-13T09:25:31.418Z,7.25
2023-05-13T09:28:02.272Z,8.25
2023-05-13T09:30:34.754Z,11.00
2023-05-13T09:33:15.074Z,10.00
2023-05-13T09:35:45.219Z,13.00
2023-05-13T09:38:18.955Z,11.75
2023-05-13T09:40:59.998Z,12.00
2023-05-13T09:43:40.087Z,10.75
2023-05-13T09:46:14.190Z,11.75
2023-05-13T09:48:45.181Z,12.25
2023-05-13T09:51:14.593Z,13.50
2023-05-13T09:53:43.941Z,13.00
2023-05-13T09:56:13.314Z,10.00
2023-05-13T09:58:47.422Z,15.00
2023-05-13T10:01:16.585Z,11.00
2023-05-13T10:04:00.571Z,14.00
2023-05-13T10:06:32.389Z,12.25
2023-05-13T10:09:03.693Z,9.50
2023-05-13T10:11:39.804Z,13.00
2023-05-13T10:14:12.085Z,11.00
2023-05-13T10:16:41.415Z,13.25
2023-05-13T10:19:19.564Z,13.50
2023-05-13T10:21:54.610Z,13.00
2023-05-13T10:24:27.482Z,13.75
2023-05-13T10:27:04.241Z,12.75
2023-05-13T10:29:36.205Z,12.50
2023-05-13T10:32:07.140Z,13.25
2023-05-13T10:34:45.003Z,15.00
2023-05-13T10:37:30.643Z,12.00
2023-05-13T10:40:18.864Z,12.00
2023-05-13T10:42:56.599Z,8.00
2023-05-13T10:45:33.090Z,12.25
2023-05-13T10:48:14.310Z,11.00
2023-05-13T10:50:59.088Z,14.50
2023-05-13T10:53:40.902Z,12.00
2023-05-13T10:56:15.367Z,10.75
2023-05-13T10:58:46.711Z,11.50
2023-05-13T11:01:18.839Z,13.25
2023-05-13T11:03:55.929Z,11.75
2023-05-13T11:06:31.041Z,12.50
2023-05-13T11:09:04.282Z,13.25
2023-05-13T11:11:34.844Z,11.50
2023-05-13T11:14:17.228Z,13.75
2023-05-13T11:16:48.570Z,10.50
2023-05-13T11:19:27.491Z,12.50
2023-05-13T11:22:08.959Z,12.00
2023-05-13T11:24:38.213Z,13.25
2023-05-13T11:27:16.950Z,9.75
2023-05-13T11:29:52.831Z,11.00
2023-05-13T11:32:51.768Z,12.00
2023-05-13T11:35:28.329Z,8.25
2023-05-13T11:38:00.797Z,10.25
2023-05-13T11:40:34.807Z,12.25
2023-05-13T11:43:06.144Z,13.00
2023-05-13T11:45:37.944Z,14.25
2023-05-13T11:48:25.391Z,10.25
2023-05-13T11:50:58.649Z,12.00
2023-05-13T11:53:31.526Z,14.00
2023-05-13T11:56:13.095Z,12.50
2023-05-13T11:58:46.423Z,13.00
2023-05-13T12:01:22.264Z,12.50
2023-05-13T12:04:03.277Z,10.25
2023-05-13T12:07:00.240Z,9.50
2023-05-13T12:09:41.105Z,11.50
2023-05-13T12:12:17.655Z,11.25
2023-05-13T12:14:47.156Z,8.00
2023-05-13T12:17:16.361Z,8.50
2023-05-13T12:20:11.687Z,8.50
2023-05-13T12:23:02.010Z,9.00
2023-05-13T12:25:49.795Z,9.00
2023-05-13T12:28:19.879Z,7.00
2023-05-13T12:31:00.902Z,8.25
2023-05-13T12:33:43.062Z,9.00
2023-05-13T12:36:20.663Z,8.00
2023-05-13T12:39:02.906Z,8.00
2023-05-13T12:41:46.486Z,7.00
2023-05-13T12:44:23.809Z,7.00
2023-05-13T12:46:59.739Z,9.00
2023-05-13T12:49:29.992Z,10.00
2023-05-13T12:52:07.276Z,11.25
2023-05-13T12:54:36.576Z,10.75
2023-05-13T12:57:16.889Z,12.75
2023-05-13T12:59:48.128Z,11.50
2023-05-13T13:02:23.895Z,7.25
2023-05-13T13:04:59.614Z,10.50
2023-05-13T13:07:39.141Z,7.50
2023-05-13T13:10:14.556Z,7.25
2023-05-13T13:12:46.715Z,6.00
2023-05-13T13:15:21.371Z,6.50
2023-05-13T13:17:52.795Z,6.00
2023-05-13T13:20:24.577Z,5.00
2023-05-13T13:22:55.152Z,5.25
2023-05-13T13:25:24.527Z,5.25
2023-05-13T13:27:56.770Z,3.25
2023-05-13T13:30:26.697Z,6.00
2023-05-13T13:32:57.209Z,4.00
2023-05-13T13:35:26.781Z,5.00
2023-05-13T13:37:59.280Z,2.00
2023-05-13T13:40:28.502Z,3.25
2023-05-13T13:43:03.065Z,4.00
2023-05-13T13:45:32.240Z,5.25
2023-05-13T13:48:04.379Z,5.00
2023-05-13T13:50:36.244Z,5.50
2023-05-13T13:53:07.109Z,5.25
2023-05-13T13:55:42.564Z,5.00
2023-05-13T13:58:15.039Z,5.50
2023-05-13T14:00:45.182Z,4.50
2023-05-13T14:03:20.982Z,5.00
2023-05-13T14:05:54.501Z,6.00
2023-05-13T14:08:29.917Z,5.00
2023-05-13T14:11:02.115Z,7.00
2023-05-13T14:13:40.173Z,9.00
2023-05-13T14:16:16.227Z,10.00
2023-05-13T14:18:47.925Z,9.50
2023-05-13T14:21:25.151Z,9.00
2023-05-13T14:23:56.304Z,9.00
2023-05-13T14:26:28.228Z,7.00
2023-05-13T14:29:03.029Z,10.00
2023-05-13T14:31:32.293Z,7.00
2023-05-13T14:34:05.201Z,9.00
2023-05-13T14:36:38.560Z,10.75
2023-05-13T14:39:10.150Z,9.00
2023-05-13T14:41:42.842Z,10.00
2023-05-13T14:44:16.404Z,9.75
2023-05-13T14:46:55.404Z,8.50
2023-05-13T14:49:28.934Z,6.50
2023-05-13T14:52:01.447Z,5.25
2023-05-13T14:54:35.913Z,9.00
2023-05-13T14:57:08.886Z,7.00
2023-05-13T14:59:41.901Z,8.00
2023-05-13T15:02:17.009Z,7.00
2023-05-13T15:04:49.183Z,8.00
2023-05-13T15:07:28.235Z,6.50
2023-05-13T15:10:09.171Z,6.75
2023-05-13T15:12:38.029Z,6.00
2023-05-13T15:15:13.084Z,7.00
2023-05-13T15:17:49.732Z,6.25
2023-05-13T15:20:23.883Z,6.00
2023-05-13T15:22:53.239Z,7.00
2023-05-13T15:25:24.397Z,7.25
2023-05-13T15:27:56.646Z,7.00
2023-05-13T15:30:28.164Z,9.00
2023-05-13T15:33:02.556Z,9.00
2023-05-13T15:35:36.636Z,0.00
2023-05-13T15:38:13.824Z,7.75
2023-05-13T15:40:42.972Z,10.00
2023-05-13T15:43:19.462Z,8.75
2023-05-13T15:45:50.385Z,9.00
2023-05-13T15:48:27.229Z,7.50
2023-05-13T15:50:56.502Z,6.50
2023-05-13T15:53:28.630Z,4.00
2023-05-13T15:55:57.833Z,6.00
2023-05-13T15:58:35.119Z,4.00
2023-05-13T16:01:12.731Z,8.75
2023-05-13T16:03:45.377Z,11.00
2023-05-13T16:06:20.119Z,10.00
2023-05-13T16:08:49.732Z,10.00
2023-05-13T16:11:23.987Z,10.50
2023-05-13T16:14:04.300Z,7.25
2023-05-13T16:16:38.002Z,6.50
2023-05-13T16:19:11.038Z,10.00
2023-05-13T16:21:46.116Z,10.00
2023-05-13T16:24:18.876Z,8.50
2023-05-13T16:27:00.386Z,8.25
2023-05-13T16:29:32.483Z,10.00
2023-05-13T16:32:09.555Z,10.25
2023-05-13T16:34:40.526Z,8.50
2023-05-13T16:37:10.001Z,10.00
2023-05-13T16:39:39.862Z,10.00
2023-05-13T16:42:12.568Z,11.00
2023-05-13T16:44:42.847Z,11.75
2023-05-13T16:47:13.664Z,6.50
2023-05-13T16:49:53.215Z,7.00
2023-05-13T16:52:26.403Z,10.50
2023-05-13T16:54:59.277Z,10.00
2023-05-13T16:57:35.844Z,8.50
2023-05-13T17:00:08.790Z,8.00
2023-05-13T17:02:46.229Z,10.00
2023-05-13T17:05:20.065Z,8.00
2023-05-13T17:07:51.684Z,7.50
2023-05-13T17:10:23.658Z,7.00
2023-05-13T17:12:58.226Z,8.75
2023-05-13T17:15:34.953Z,10.00
2023-05-13T17:18:08.081Z,10.00
2023-05-13T17:20:46.385Z,8.25
2023-05-13T17:23:17.591Z,10.00
2023-05-13T17:25:56.423Z,10.00
2023-05-13T17:28:36.137Z,13.00
2023-05-13T17:31:11.489Z,8.25
2023-05-13T17:33:46.921Z,10.50
2023-05-13T17:36:16.157Z,10.00
2023-05-13T17:38:45.350Z,7.75
2023-05-13T17:41:33.244Z,10.75
2023-05-13T17:44:19.873Z,8.00
2023-05-13T17:46:54.309Z,10.00
2023-05-13T17:49:31.793Z,10.00
2023-05-13T17:52:01.153Z,7.50
2023-05-13T17:54:31.658Z,7.00
2023-05-13T17:57:02.493Z,5.00
2023-05-13T17:59:39.250Z,10.00
2023-05-13T18:02:14.415Z,8.75
2023-05-13T18:04:55.277Z,8.00
2023-05-13T18:07:24.921Z,10.00
2023-05-13T18:10:00.463Z,10.00
2023-05-13T18:12:31.473Z,10.50
2023-05-13T18:15:08.727Z,7.00
2023-05-13T18:17:38.281Z,8.00
2023-05-13T18:20:14.379Z,8.75
2023-05-13T18:22:44.722Z,10.00
2023-05-13T18:25:15.543Z,9.75
2023-05-13T18:27:47.117Z,10.00
2023-05-13T18:30:20.617Z,10.00
2023-05-13T18:32:52.859Z,7.25
2023-05-13T18:35:24.809Z,5.50
2023-05-13T18:38:02.705Z,10.75
2023-05-13T18:40:34.346Z,10.75
2023-05-13T18:43:03.590Z,10.75
2023-05-13T18:45:37.737Z,13.00
2023-05-13T18:48:07.581Z,10.75
2023-05-13T18:50:39.663Z,11.25
2023-05-13T18:53:08.806Z,11.25
2023-05-13T18:55:42.785Z,10.00
2023-05-13T18:58:17.298Z,11.50
2023-05-13T19:00:47.242Z,10.00
2023-05-13T19:03:29.607Z,11.00
2023-05-13T19:06:00.163Z,11.75
2023-05-13T19:08:29.235Z,9.75
2023-05-13T19:10:59.241Z,10.00
2023-05-13T19:13:43.407Z,9.00
2023-05-13T19:16:23.289Z,10.25
2023-05-13T19:18:52.474Z,13.00
2023-05-13T19:21:24.734Z,12.00
2023-05-13T19:23:53.815Z,9.00
2023-05-13T19:26:29.845Z,8.00
2023-05-13T19:29:01.293Z,12.50
2023-05-13T19:31:32.687Z,13.50
2023-05-13T19:34:02.415Z,9.25
2023-05-13T19:36:35.278Z,12.00
2023-05-13T19:39:04.395Z,10.50
2023-05-13T19:41:40.037Z,8.50
2023-05-13T19:44:12.957Z,10.50
2023-05-13T19:46:44.244Z,12.00
2023-05-13T19:49:19.702Z,13.00
2023-05-13T19:51:54.321Z,12.00
2023-05-13T19:54:23.504Z,7.00
2023-05-13T19:56:55.121Z,10.00
2023-05-13T19:59:28.473Z,10.40
2023-05-13T20:02:11.442Z,10.40
2023-05-13T20:04:43.506Z,11.60
2023-05-13T20:07:23.314Z,8.60
2023-05-13T20:09:58.100Z,13.00
2023-05-13T20:12:32.716Z,13.00
2023-05-13T20:15:04.111Z,13.00
2023-05-13T20:17:37.626Z,12.60
2023-05-13T20:20:12.216Z,12.00
2023-05-13T20:22:49.958Z,11.20
2023-05-13T20:25:24.920Z,12.40
2023-05-13T20:27:59.724Z,13.00
2023-05-13T20:30:33.440Z,11.60
2023-05-13T20:33:05.114Z,11.60
2023-05-13T20:35:35.851Z,7.00
2023-05-13T20:38:11.815Z,12.60
2023-05-13T20:40:49.895Z,12.20
2023-05-13T20:43:25.537Z,11.60
2023-05-13T20:45:56.101Z,12.00
2023-05-13T20:48:28.172Z,12.00
2023-05-13T20:51:03.126Z,11.60
2023-05-13T20:53:38.588Z,12.00
2023-05-13T20:56:13.912Z,10.00
2023-05-13T20:58:48.494Z,6.40
2023-05-13T21:01:27.003Z,10.40
2023-05-13T21:04:05.025Z,10.00
2023-05-13T21:06:34.349Z,6.00
2023-05-13T21:09:15.367Z,12.00
2023-05-13T21:11:47.669Z,12.00
2023-05-13T21:14:25.776Z,13.00
2023-05-13T21:16:57.955Z,13.00
2023-05-13T21:19:33.179Z,9.40
2023-05-13T21:22:06.334Z,12.80
2023-05-13T21:24:38.138Z,10.80
2023-05-13T21:27:12.958Z,13.80
2023-05-13T21:29:46.261Z,10.00
2023-05-13T21:32:18.537Z,13.00
2023-05-13T21:34:53.217Z,12.00
2023-05-13T21:37:27.127Z,9.60
2023-05-13T21:40:08.067Z,12.20
2023-05-13T21:42:37.312Z,12.80
2023-05-13T21:45:10.591Z,13.40
2023-05-13T21:47:42.712Z,12.60
2023-05-13T21:50:18.027Z,10.00
2023-05-13T21:52:50.561Z,13.80
2023-05-13T21:55:25.480Z,11.20
2023-05-13T21:58:13.737Z,13.40
2023-05-13T22:00:49.202Z,12.80
2023-05-13T22:03:24.288Z,12.20
2023-05-13T22:05:57.196Z,12.40
2023-05-13T22:08:31.439Z,9.60
2023-05-13T22:11:05.980Z,10.80
2023-05-13T22:13:54.248Z,10.80
2023-05-13T22:16:29.419Z,12.00
2023-05-13T22:19:05.246Z,13.00
2023-05-13T22:24:28.689Z,10.00
2023-05-13T22:27:07.637Z,12.20
2023-05-13T22:29:37.000Z,11.20
2023-05-13T22:32:07.933Z,12.00
2023-05-13T22:34:39.068Z,13.00
2023-05-13T22:37:11.499Z,9.00
2023-05-13T22:39:48.009Z,12.60
2023-05-13T22:42:23.535Z,14.60
2023-05-13T22:44:56.249Z,11.60
2023-05-13T22:47:27.520Z,15.00
2023-05-13T22:50:05.166Z,13.00
2023-05-13T22:52:43.192Z,13.00
2023-05-13T22:55:16.971Z,12.00
2023-05-13T22:57:56.961Z,11.60
2023-05-13T23:00:28.289Z,7.80
2023-05-13T23:03:07.125Z,11.60
2023-05-13T23:05:41.372Z,11.60
2023-05-13T23:08:13.185Z,10.00
2023-05-13T23:10:47.683Z,10.40
2023-05-13T23:13:20.181Z,12.00
2023-05-13T23:15:55.386Z,11.60
2023-05-13T23:18:30.018Z,9.80
2023-05-13T23:20:59.003Z,15.00
2023-05-13T23:23:34.361Z,12.80
2023-05-13T23:26:04.674Z,13.80
2023-05-13T23:28:35.530Z,9.00
2023-05-13T23:31:11.735Z,10.00
2023-05-13T23:33:47.189Z,13.00
2023-05-13T23:36:27.085Z,10.80
2023-05-13T23:39:04.474Z,9.20
2023-05-13T23:41:37.566Z,11.20
2023-05-13T23:44:10.036Z,12.60
2023-05-13T23:46:41.485Z,12.60
2023-05-13T23:49:14.670Z,11.20
2023-05-13T23:51:46.332Z,10.40
2023-05-13T23:54:20.150Z,12.20
2023-05-13T23:56:53.480Z,12.00
2023-05-13T23:59:28.665Z,9.80
